sensor_id;sensor_type;location;lat;lon;timestamp;P1;durP1;ratioP1;P2;durP2;ratioP2
14599;SDS011;7386;45.586;12.854;2022-09-02T00:01:37;4.32;;;3.10;;
14599;SDS011;7386;45.586;12.854;2022-09-02T00:04:07;7.05;;;3.10;;
14599;SDS011;7386;45.586;12.854;2022-09-02T00:06:36;4.20;;;3.30;;
14599;SDS011;7386;45.586;12.854;2022-09-02T00:09:05;4.93;;;3.28;;
14599;SDS011;7386;45.586;12.854;2022-09-02T00:11:34;4.30;;;3.20;;
14599;SDS011;7386;45.586;12.854;2022-09-02T00:14:05;5.88;;;3.50;;
14599;SDS011;7386;45.586;12.854;2022-09-02T00:16:34;5.60;;;3.88;;
14599;SDS011;7386;45.586;12.854;2022-09-02T00:19:04;4.72;;;3.50;;
14599;SDS011;7386;45.586;12.854;2022-09-02T00:21:33;5.57;;;3.55;;
14599;SDS011;7386;45.586;12.854;2022-09-02T00:24:02;6.80;;;3.55;;
14599;SDS011;7386;45.586;12.854;2022-09-02T00:26:32;5.10;;;3.67;;
14599;SDS011;7386;45.586;12.854;2022-09-02T00:29:00;4.55;;;3.58;;
14599;SDS011;7386;45.586;12.854;2022-09-02T00:31:29;4.10;;;3.70;;
14599;SDS011;7386;45.586;12.854;2022-09-02T00:33:59;9.50;;;4.00;;
14599;SDS011;7386;45.586;12.854;2022-09-02T00:36:29;7.47;;;3.88;;
14599;SDS011;7386;45.586;12.854;2022-09-02T00:38:57;5.63;;;4.00;;
14599;SDS011;7386;45.586;12.854;2022-09-02T00:41:26;4.72;;;4.10;;
14599;SDS011;7386;45.586;12.854;2022-09-02T00:43:56;5.20;;;3.90;;
14599;SDS011;7386;45.586;12.854;2022-09-02T00:46:25;6.95;;;4.30;;
14599;SDS011;7386;45.586;12.854;2022-09-02T00:48:56;8.85;;;3.90;;
14599;SDS011;7386;45.586;12.854;2022-09-02T00:51:27;5.90;;;3.90;;
14599;SDS011;7386;45.586;12.854;2022-09-02T00:53:59;5.25;;;3.80;;
14599;SDS011;7386;45.586;12.854;2022-09-02T00:56:28;6.05;;;4.07;;
14599;SDS011;7386;45.586;12.854;2022-09-02T00:58:59;5.72;;;4.10;;
14599;SDS011;7386;45.586;12.854;2022-09-02T01:01:28;4.30;;;3.58;;
14599;SDS011;7386;45.586;12.854;2022-09-02T01:03:56;4.40;;;3.85;;
14599;SDS011;7386;45.586;12.854;2022-09-02T01:06:26;4.80;;;3.90;;
14599;SDS011;7386;45.586;12.854;2022-09-02T01:09:01;6.30;;;3.90;;
14599;SDS011;7386;45.586;12.854;2022-09-02T01:11:34;4.55;;;3.80;;
14599;SDS011;7386;45.586;12.854;2022-09-02T01:14:04;4.85;;;3.63;;
14599;SDS011;7386;45.586;12.854;2022-09-02T01:16:37;5.70;;;3.55;;
14599;SDS011;7386;45.586;12.854;2022-09-02T01:19:09;5.75;;;3.95;;
14599;SDS011;7386;45.586;12.854;2022-09-02T01:21:45;5.10;;;3.97;;
14599;SDS011;7386;45.586;12.854;2022-09-02T01:24:13;6.68;;;4.10;;
14599;SDS011;7386;45.586;12.854;2022-09-02T01:26:43;7.07;;;4.55;;
14599;SDS011;7386;45.586;12.854;2022-09-02T01:29:12;8.20;;;4.55;;
14599;SDS011;7386;45.586;12.854;2022-09-02T01:31:41;6.22;;;4.25;;
14599;SDS011;7386;45.586;12.854;2022-09-02T01:34:10;5.55;;;4.45;;
14599;SDS011;7386;45.586;12.854;2022-09-02T01:36:39;4.93;;;3.92;;
14599;SDS011;7386;45.586;12.854;2022-09-02T01:39:10;5.80;;;4.10;;
14599;SDS011;7386;45.586;12.854;2022-09-02T01:41:38;5.93;;;3.90;;
14599;SDS011;7386;45.586;12.854;2022-09-02T01:44:08;4.43;;;4.00;;
14599;SDS011;7386;45.586;12.854;2022-09-02T01:46:37;5.32;;;4.00;;
14599;SDS011;7386;45.586;12.854;2022-09-02T01:49:06;5.15;;;4.25;;
14599;SDS011;7386;45.586;12.854;2022-09-02T01:51:35;4.57;;;4.10;;
14599;SDS011;7386;45.586;12.854;2022-09-02T01:54:04;6.03;;;4.32;;
14599;SDS011;7386;45.586;12.854;2022-09-02T01:56:34;5.72;;;3.97;;
14599;SDS011;7386;45.586;12.854;2022-09-02T01:59:02;6.35;;;4.20;;
14599;SDS011;7386;45.586;12.854;2022-09-02T02:01:33;5.20;;;4.20;;
14599;SDS011;7386;45.586;12.854;2022-09-02T02:04:03;5.38;;;4.40;;
14599;SDS011;7386;45.586;12.854;2022-09-02T02:06:38;4.95;;;4.10;;
14599;SDS011;7386;45.586;12.854;2022-09-02T02:09:08;4.75;;;4.10;;
14599;SDS011;7386;45.586;12.854;2022-09-02T02:11:38;4.93;;;4.05;;
14599;SDS011;7386;45.586;12.854;2022-09-02T02:14:07;5.40;;;4.43;;
14599;SDS011;7386;45.586;12.854;2022-09-02T02:16:36;4.60;;;4.20;;
14599;SDS011;7386;45.586;12.854;2022-09-02T02:19:04;5.80;;;4.25;;
14599;SDS011;7386;45.586;12.854;2022-09-02T02:21:34;4.40;;;4.00;;
14599;SDS011;7386;45.586;12.854;2022-09-02T02:24:02;4.53;;;4.03;;
14599;SDS011;7386;45.586;12.854;2022-09-02T02:26:33;4.53;;;3.92;;
14599;SDS011;7386;45.586;12.854;2022-09-02T02:29:03;3.80;;;3.40;;
14599;SDS011;7386;45.586;12.854;2022-09-02T02:31:31;5.72;;;3.95;;
14599;SDS011;7386;45.586;12.854;2022-09-02T02:34:00;6.63;;;4.07;;
14599;SDS011;7386;45.586;12.854;2022-09-02T02:36:29;6.32;;;3.83;;
14599;SDS011;7386;45.586;12.854;2022-09-02T02:38:58;4.95;;;4.18;;
14599;SDS011;7386;45.586;12.854;2022-09-02T02:41:28;4.82;;;3.90;;
14599;SDS011;7386;45.586;12.854;2022-09-02T02:43:57;7.10;;;4.25;;
14599;SDS011;7386;45.586;12.854;2022-09-02T02:46:27;5.50;;;4.30;;
14599;SDS011;7386;45.586;12.854;2022-09-02T02:48:57;6.57;;;4.03;;
14599;SDS011;7386;45.586;12.854;2022-09-02T02:51:26;4.90;;;4.07;;
14599;SDS011;7386;45.586;12.854;2022-09-02T02:53:55;5.82;;;4.18;;
14599;SDS011;7386;45.586;12.854;2022-09-02T02:56:24;4.90;;;4.10;;
14599;SDS011;7386;45.586;12.854;2022-09-02T02:58:53;4.10;;;3.70;;
14599;SDS011;7386;45.586;12.854;2022-09-02T03:01:22;5.50;;;3.85;;
14599;SDS011;7386;45.586;12.854;2022-09-02T03:03:52;4.30;;;3.88;;
14599;SDS011;7386;45.586;12.854;2022-09-02T03:06:21;5.50;;;3.88;;
14599;SDS011;7386;45.586;12.854;2022-09-02T03:08:52;4.28;;;3.15;;
14599;SDS011;7386;45.586;12.854;2022-09-02T03:11:21;3.75;;;3.45;;
14599;SDS011;7386;45.586;12.854;2022-09-02T03:13:51;4.03;;;3.50;;
14599;SDS011;7386;45.586;12.854;2022-09-02T03:16:20;6.40;;;3.83;;
14599;SDS011;7386;45.586;12.854;2022-09-02T03:18:49;6.43;;;3.60;;
14599;SDS011;7386;45.586;12.854;2022-09-02T03:21:19;5.75;;;3.90;;
14599;SDS011;7386;45.586;12.854;2022-09-02T03:23:48;4.82;;;3.95;;
14599;SDS011;7386;45.586;12.854;2022-09-02T03:26:17;5.47;;;4.25;;
14599;SDS011;7386;45.586;12.854;2022-09-02T03:28:46;5.55;;;3.95;;
14599;SDS011;7386;45.586;12.854;2022-09-02T03:31:15;5.57;;;3.92;;
14599;SDS011;7386;45.586;12.854;2022-09-02T03:33:44;4.88;;;3.85;;
14599;SDS011;7386;45.586;12.854;2022-09-02T03:36:25;6.95;;;4.00;;
14599;SDS011;7386;45.586;12.854;2022-09-02T03:38:54;5.30;;;4.35;;
14599;SDS011;7386;45.586;12.854;2022-09-02T03:41:23;6.55;;;3.50;;
14599;SDS011;7386;45.586;12.854;2022-09-02T03:43:51;4.68;;;4.00;;
14599;SDS011;7386;45.586;12.854;2022-09-02T03:46:20;5.53;;;4.05;;
14599;SDS011;7386;45.586;12.854;2022-09-02T03:48:49;3.88;;;3.47;;
14599;SDS011;7386;45.586;12.854;2022-09-02T03:51:17;5.95;;;3.80;;
14599;SDS011;7386;45.586;12.854;2022-09-02T03:53:47;4.07;;;3.67;;
14599;SDS011;7386;45.586;12.854;2022-09-02T03:56:16;4.50;;;3.60;;
14599;SDS011;7386;45.586;12.854;2022-09-02T03:58:46;4.07;;;3.47;;
14599;SDS011;7386;45.586;12.854;2022-09-02T04:01:18;7.03;;;4.10;;
14599;SDS011;7386;45.586;12.854;2022-09-02T04:03:48;4.10;;;3.70;;
14599;SDS011;7386;45.586;12.854;2022-09-02T04:06:18;5.85;;;3.83;;
14599;SDS011;7386;45.586;12.854;2022-09-02T04:08:48;4.68;;;3.88;;
14599;SDS011;7386;45.586;12.854;2022-09-02T04:11:18;6.43;;;4.18;;
14599;SDS011;7386;45.586;12.854;2022-09-02T04:13:48;7.25;;;4.25;;
14599;SDS011;7386;45.586;12.854;2022-09-02T04:16:17;5.82;;;4.00;;
14599;SDS011;7386;45.586;12.854;2022-09-02T04:18:46;4.85;;;3.70;;
14599;SDS011;7386;45.586;12.854;2022-09-02T04:21:15;4.05;;;3.65;;
14599;SDS011;7386;45.586;12.854;2022-09-02T04:23:44;4.78;;;4.15;;
14599;SDS011;7386;45.586;12.854;2022-09-02T04:26:15;5.10;;;4.13;;
14599;SDS011;7386;45.586;12.854;2022-09-02T04:28:44;6.50;;;3.92;;
14599;SDS011;7386;45.586;12.854;2022-09-02T04:31:13;4.63;;;3.78;;
14599;SDS011;7386;45.586;12.854;2022-09-02T04:33:43;4.10;;;3.70;;
14599;SDS011;7386;45.586;12.854;2022-09-02T04:36:12;5.85;;;4.25;;
14599;SDS011;7386;45.586;12.854;2022-09-02T04:38:41;6.53;;;3.90;;
14599;SDS011;7386;45.586;12.854;2022-09-02T04:41:13;4.18;;;3.65;;
14599;SDS011;7386;45.586;12.854;2022-09-02T04:43:43;6.03;;;3.75;;
14599;SDS011;7386;45.586;12.854;2022-09-02T04:46:13;7.70;;;3.88;;
14599;SDS011;7386;45.586;12.854;2022-09-02T04:48:42;4.50;;;3.67;;
14599;SDS011;7386;45.586;12.854;2022-09-02T04:51:12;7.70;;;4.57;;
14599;SDS011;7386;45.586;12.854;2022-09-02T04:53:42;4.75;;;4.00;;
14599;SDS011;7386;45.586;12.854;2022-09-02T04:56:12;7.43;;;4.10;;
14599;SDS011;7386;45.586;12.854;2022-09-02T04:58:41;6.38;;;3.80;;
14599;SDS011;7386;45.586;12.854;2022-09-02T05:01:13;5.18;;;3.75;;
14599;SDS011;7386;45.586;12.854;2022-09-02T05:03:42;4.85;;;3.67;;
14599;SDS011;7386;45.586;12.854;2022-09-02T05:06:13;5.55;;;3.80;;
14599;SDS011;7386;45.586;12.854;2022-09-02T05:08:42;6.07;;;3.90;;
14599;SDS011;7386;45.586;12.854;2022-09-02T05:11:14;5.63;;;4.00;;
14599;SDS011;7386;45.586;12.854;2022-09-02T05:13:43;6.95;;;4.40;;
14599;SDS011;7386;45.586;12.854;2022-09-02T05:16:18;6.65;;;3.88;;
14599;SDS011;7386;45.586;12.854;2022-09-02T05:18:47;7.32;;;3.80;;
14599;SDS011;7386;45.586;12.854;2022-09-02T05:21:16;5.00;;;3.80;;
14599;SDS011;7386;45.586;12.854;2022-09-02T05:23:45;5.03;;;3.90;;
14599;SDS011;7386;45.586;12.854;2022-09-02T05:26:13;5.90;;;4.07;;
14599;SDS011;7386;45.586;12.854;2022-09-02T05:28:43;5.45;;;3.90;;
14599;SDS011;7386;45.586;12.854;2022-09-02T05:31:12;6.43;;;4.07;;
14599;SDS011;7386;45.586;12.854;2022-09-02T05:33:42;5.28;;;4.00;;
14599;SDS011;7386;45.586;12.854;2022-09-02T05:36:11;6.78;;;4.07;;
14599;SDS011;7386;45.586;12.854;2022-09-02T05:38:41;7.97;;;3.78;;
14599;SDS011;7386;45.586;12.854;2022-09-02T05:41:10;6.10;;;3.65;;
14599;SDS011;7386;45.586;12.854;2022-09-02T05:43:40;5.18;;;3.88;;
14599;SDS011;7386;45.586;12.854;2022-09-02T05:46:11;5.43;;;3.72;;
14599;SDS011;7386;45.586;12.854;2022-09-02T05:48:44;6.18;;;3.88;;
14599;SDS011;7386;45.586;12.854;2022-09-02T05:51:32;7.10;;;4.18;;
14599;SDS011;7386;45.586;12.854;2022-09-02T05:54:01;5.80;;;3.97;;
14599;SDS011;7386;45.586;12.854;2022-09-02T05:56:29;4.07;;;3.63;;
14599;SDS011;7386;45.586;12.854;2022-09-02T05:58:57;5.07;;;4.07;;
14599;SDS011;7386;45.586;12.854;2022-09-02T06:01:27;8.43;;;3.90;;
14599;SDS011;7386;45.586;12.854;2022-09-02T06:03:57;7.22;;;4.00;;
14599;SDS011;7386;45.586;12.854;2022-09-02T06:06:27;6.32;;;4.20;;
14599;SDS011;7386;45.586;12.854;2022-09-02T06:08:56;4.65;;;3.80;;
14599;SDS011;7386;45.586;12.854;2022-09-02T06:11:26;3.83;;;3.45;;
14599;SDS011;7386;45.586;12.854;2022-09-02T06:13:55;3.90;;;3.50;;
14599;SDS011;7386;45.586;12.854;2022-09-02T06:16:24;4.32;;;3.40;;
14599;SDS011;7386;45.586;12.854;2022-09-02T06:18:53;5.72;;;3.47;;
14599;SDS011;7386;45.586;12.854;2022-09-02T06:21:23;4.75;;;3.20;;
14599;SDS011;7386;45.586;12.854;2022-09-02T06:23:51;4.88;;;3.60;;
14599;SDS011;7386;45.586;12.854;2022-09-02T06:26:20;3.47;;;3.00;;
14599;SDS011;7386;45.586;12.854;2022-09-02T06:28:49;5.78;;;3.38;;
14599;SDS011;7386;45.586;12.854;2022-09-02T06:31:18;4.50;;;3.10;;
14599;SDS011;7386;45.586;12.854;2022-09-02T06:33:46;4.63;;;3.05;;
14599;SDS011;7386;45.586;12.854;2022-09-02T06:36:16;3.60;;;3.00;;
14599;SDS011;7386;45.586;12.854;2022-09-02T06:38:48;2.95;;;2.65;;
14599;SDS011;7386;45.586;12.854;2022-09-02T06:41:18;3.65;;;2.90;;
14599;SDS011;7386;45.586;12.854;2022-09-02T06:43:48;3.22;;;2.63;;
14599;SDS011;7386;45.586;12.854;2022-09-02T06:46:21;2.92;;;2.60;;
14599;SDS011;7386;45.586;12.854;2022-09-02T06:48:49;4.07;;;2.80;;
14599;SDS011;7386;45.586;12.854;2022-09-02T06:51:19;3.78;;;2.97;;
14599;SDS011;7386;45.586;12.854;2022-09-02T06:53:49;6.32;;;2.88;;
14599;SDS011;7386;45.586;12.854;2022-09-02T06:56:18;3.17;;;2.70;;
14599;SDS011;7386;45.586;12.854;2022-09-02T06:58:47;5.55;;;3.25;;
14599;SDS011;7386;45.586;12.854;2022-09-02T07:01:18;5.15;;;3.03;;
14599;SDS011;7386;45.586;12.854;2022-09-02T07:03:47;3.60;;;2.70;;
14599;SDS011;7386;45.586;12.854;2022-09-02T07:06:33;5.03;;;2.55;;
14599;SDS011;7386;45.586;12.854;2022-09-02T07:09:04;3.35;;;2.67;;
14599;SDS011;7386;45.586;12.854;2022-09-02T07:11:34;4.30;;;3.05;;
14599;SDS011;7386;45.586;12.854;2022-09-02T07:14:02;5.57;;;2.90;;
14599;SDS011;7386;45.586;12.854;2022-09-02T07:16:32;2.90;;;2.63;;
14599;SDS011;7386;45.586;12.854;2022-09-02T07:19:02;3.97;;;2.25;;
14599;SDS011;7386;45.586;12.854;2022-09-02T07:21:40;4.95;;;2.83;;
14599;SDS011;7386;45.586;12.854;2022-09-02T07:24:11;6.35;;;2.72;;
14599;SDS011;7386;45.586;12.854;2022-09-02T07:26:43;3.25;;;2.65;;
14599;SDS011;7386;45.586;12.854;2022-09-02T07:29:11;3.88;;;2.70;;
14599;SDS011;7386;45.586;12.854;2022-09-02T07:31:41;6.00;;;2.67;;
14599;SDS011;7386;45.586;12.854;2022-09-02T07:34:11;3.28;;;2.50;;
14599;SDS011;7386;45.586;12.854;2022-09-02T07:36:40;6.03;;;2.70;;
14599;SDS011;7386;45.586;12.854;2022-09-02T07:39:13;3.63;;;2.70;;
14599;SDS011;7386;45.586;12.854;2022-09-02T07:41:42;2.80;;;2.50;;
14599;SDS011;7386;45.586;12.854;2022-09-02T07:44:12;4.10;;;2.60;;
14599;SDS011;7386;45.586;12.854;2022-09-02T07:46:41;5.13;;;2.50;;
14599;SDS011;7386;45.586;12.854;2022-09-02T07:49:13;4.32;;;2.50;;
14599;SDS011;7386;45.586;12.854;2022-09-02T07:51:47;4.65;;;2.28;;
14599;SDS011;7386;45.586;12.854;2022-09-02T07:54:19;9.05;;;2.63;;
14599;SDS011;7386;45.586;12.854;2022-09-02T07:56:47;8.27;;;2.53;;
14599;SDS011;7386;45.586;12.854;2022-09-02T07:59:16;5.15;;;2.80;;
14599;SDS011;7386;45.586;12.854;2022-09-02T08:01:45;5.97;;;2.70;;
14599;SDS011;7386;45.586;12.854;2022-09-02T08:04:14;11.65;;;2.85;;
14599;SDS011;7386;45.586;12.854;2022-09-02T08:06:44;10.77;;;2.60;;
14599;SDS011;7386;45.586;12.854;2022-09-02T08:09:13;6.47;;;2.55;;
14599;SDS011;7386;45.586;12.854;2022-09-02T08:11:44;5.65;;;2.40;;
14599;SDS011;7386;45.586;12.854;2022-09-02T08:14:13;5.53;;;2.70;;
14599;SDS011;7386;45.586;12.854;2022-09-02T08:16:43;6.75;;;2.58;;
14599;SDS011;7386;45.586;12.854;2022-09-02T08:19:12;9.32;;;2.47;;
14599;SDS011;7386;45.586;12.854;2022-09-02T08:21:41;5.75;;;2.50;;
14599;SDS011;7386;45.586;12.854;2022-09-02T08:24:09;3.58;;;2.20;;
14599;SDS011;7386;45.586;12.854;2022-09-02T08:26:40;5.05;;;2.40;;
14599;SDS011;7386;45.586;12.854;2022-09-02T08:29:10;4.38;;;2.30;;
14599;SDS011;7386;45.586;12.854;2022-09-02T08:31:41;5.60;;;2.42;;
14599;SDS011;7386;45.586;12.854;2022-09-02T08:34:13;4.35;;;2.30;;
14599;SDS011;7386;45.586;12.854;2022-09-02T08:36:42;7.75;;;2.45;;
14599;SDS011;7386;45.586;12.854;2022-09-02T08:39:22;6.97;;;2.42;;
14599;SDS011;7386;45.586;12.854;2022-09-02T08:41:52;3.40;;;2.33;;
14599;SDS011;7386;45.586;12.854;2022-09-02T08:44:22;3.83;;;2.60;;
14599;SDS011;7386;45.586;12.854;2022-09-02T08:46:55;3.03;;;2.25;;
14599;SDS011;7386;45.586;12.854;2022-09-02T08:49:27;4.55;;;2.22;;
14599;SDS011;7386;45.586;12.854;2022-09-02T08:51:57;3.40;;;2.40;;
14599;SDS011;7386;45.586;12.854;2022-09-02T08:54:29;3.22;;;2.25;;
14599;SDS011;7386;45.586;12.854;2022-09-02T08:56:58;4.68;;;2.20;;
14599;SDS011;7386;45.586;12.854;2022-09-02T08:59:28;4.40;;;2.53;;
14599;SDS011;7386;45.586;12.854;2022-09-02T09:02:02;2.92;;;1.95;;
14599;SDS011;7386;45.586;12.854;2022-09-02T09:04:50;7.63;;;2.28;;
14599;SDS011;7386;45.586;12.854;2022-09-02T09:07:23;2.30;;;2.10;;
14599;SDS011;7386;45.586;12.854;2022-09-02T09:10:02;4.38;;;2.30;;
14599;SDS011;7386;45.586;12.854;2022-09-02T09:12:36;5.68;;;2.50;;
14599;SDS011;7386;45.586;12.854;2022-09-02T09:15:10;4.28;;;2.55;;
14599;SDS011;7386;45.586;12.854;2022-09-02T09:17:43;5.18;;;2.45;;
14599;SDS011;7386;45.586;12.854;2022-09-02T09:20:15;5.90;;;1.88;;
14599;SDS011;7386;45.586;12.854;2022-09-02T09:22:46;6.43;;;2.20;;
14599;SDS011;7386;45.586;12.854;2022-09-02T09:25:15;2.47;;;2.25;;
14599;SDS011;7386;45.586;12.854;2022-09-02T09:27:45;3.80;;;2.30;;
14599;SDS011;7386;45.586;12.854;2022-09-02T09:30:15;2.65;;;2.17;;
14599;SDS011;7386;45.586;12.854;2022-09-02T09:32:45;4.00;;;2.33;;
14599;SDS011;7386;45.586;12.854;2022-09-02T09:35:15;4.13;;;2.40;;
14599;SDS011;7386;45.586;12.854;2022-09-02T09:37:44;3.80;;;2.40;;
14599;SDS011;7386;45.586;12.854;2022-09-02T09:40:23;4.88;;;2.20;;
14599;SDS011;7386;45.586;12.854;2022-09-02T09:42:53;2.40;;;2.17;;
14599;SDS011;7386;45.586;12.854;2022-09-02T09:45:27;4.78;;;2.30;;
14599;SDS011;7386;45.586;12.854;2022-09-02T09:50:44;3.72;;;2.50;;
14599;SDS011;7386;45.586;12.854;2022-09-02T09:53:13;2.40;;;2.20;;
14599;SDS011;7386;45.586;12.854;2022-09-02T09:55:50;5.30;;;2.35;;
14599;SDS011;7386;45.586;12.854;2022-09-02T09:58:19;4.68;;;2.40;;
14599;SDS011;7386;45.586;12.854;2022-09-02T10:00:51;5.15;;;2.47;;
14599;SDS011;7386;45.586;12.854;2022-09-02T10:03:22;3.15;;;2.40;;
14599;SDS011;7386;45.586;12.854;2022-09-02T10:05:58;4.65;;;2.20;;
14599;SDS011;7386;45.586;12.854;2022-09-02T10:08:49;4.28;;;2.53;;
14599;SDS011;7386;45.586;12.854;2022-09-02T10:11:22;4.97;;;2.60;;
14599;SDS011;7386;45.586;12.854;2022-09-02T10:13:52;3.40;;;2.28;;
14599;SDS011;7386;45.586;12.854;2022-09-02T10:16:29;4.63;;;2.65;;
14599;SDS011;7386;45.586;12.854;2022-09-02T10:19:06;2.55;;;2.35;;
14599;SDS011;7386;45.586;12.854;2022-09-02T10:21:43;3.65;;;2.58;;
14599;SDS011;7386;45.586;12.854;2022-09-02T10:24:22;4.85;;;2.20;;
14599;SDS011;7386;45.586;12.854;2022-09-02T10:26:53;4.80;;;2.40;;
14599;SDS011;7386;45.586;12.854;2022-09-02T10:32:20;4.28;;;2.40;;
14599;SDS011;7386;45.586;12.854;2022-09-02T10:34:52;2.78;;;2.30;;
14599;SDS011;7386;45.586;12.854;2022-09-02T10:37:25;2.50;;;2.22;;
14599;SDS011;7386;45.586;12.854;2022-09-02T10:40:03;4.60;;;2.40;;
14599;SDS011;7386;45.586;12.854;2022-09-02T10:42:38;4.00;;;2.50;;
14599;SDS011;7386;45.586;12.854;2022-09-02T10:45:13;3.78;;;2.33;;
14599;SDS011;7386;45.586;12.854;2022-09-02T10:47:45;4.32;;;2.40;;
14599;SDS011;7386;45.586;12.854;2022-09-02T10:50:20;4.15;;;2.30;;
14599;SDS011;7386;45.586;12.854;2022-09-02T10:52:57;8.07;;;2.42;;
14599;SDS011;7386;45.586;12.854;2022-09-02T10:55:35;3.72;;;2.35;;
14599;SDS011;7386;45.586;12.854;2022-09-02T10:58:07;6.35;;;2.63;;
14599;SDS011;7386;45.586;12.854;2022-09-02T11:00:39;4.25;;;2.35;;
14599;SDS011;7386;45.586;12.854;2022-09-02T11:03:11;2.85;;;2.13;;
14599;SDS011;7386;45.586;12.854;2022-09-02T11:05:42;3.05;;;2.30;;
14599;SDS011;7386;45.586;12.854;2022-09-02T11:08:13;2.63;;;2.22;;
14599;SDS011;7386;45.586;12.854;2022-09-02T11:10:46;5.95;;;2.50;;
14599;SDS011;7386;45.586;12.854;2022-09-02T11:13:18;2.63;;;2.20;;
14599;SDS011;7386;45.586;12.854;2022-09-02T11:15:50;3.28;;;2.25;;
14599;SDS011;7386;45.586;12.854;2022-09-02T11:18:23;5.22;;;2.35;;
14599;SDS011;7386;45.586;12.854;2022-09-02T11:20:56;3.15;;;2.20;;
14599;SDS011;7386;45.586;12.854;2022-09-02T11:23:29;4.18;;;2.15;;
14599;SDS011;7386;45.586;12.854;2022-09-02T11:26:03;5.07;;;2.40;;
14599;SDS011;7386;45.586;12.854;2022-09-02T11:28:37;3.33;;;2.33;;
14599;SDS011;7386;45.586;12.854;2022-09-02T11:31:11;5.07;;;2.60;;
14599;SDS011;7386;45.586;12.854;2022-09-02T11:33:48;3.25;;;2.38;;
14599;SDS011;7386;45.586;12.854;2022-09-02T11:36:18;5.38;;;2.20;;
14599;SDS011;7386;45.586;12.854;2022-09-02T11:38:52;4.90;;;2.40;;
14599;SDS011;7386;45.586;12.854;2022-09-02T11:41:24;3.15;;;2.42;;
14599;SDS011;7386;45.586;12.854;2022-09-02T11:44:04;6.20;;;2.90;;
14599;SDS011;7386;45.586;12.854;2022-09-02T11:49:37;4.55;;;2.72;;
14599;SDS011;7386;45.586;12.854;2022-09-02T11:52:16;5.88;;;3.78;;
14599;SDS011;7386;45.586;12.854;2022-09-02T11:54:54;6.25;;;3.63;;
14599;SDS011;7386;45.586;12.854;2022-09-02T11:57:28;6.93;;;3.40;;
14599;SDS011;7386;45.586;12.854;2022-09-02T12:00:12;7.97;;;4.10;;
14599;SDS011;7386;45.586;12.854;2022-09-02T12:02:54;4.75;;;3.00;;
14599;SDS011;7386;45.586;12.854;2022-09-02T12:06:09;6.45;;;3.83;;
14599;SDS011;7386;45.586;12.854;2022-09-02T12:08:56;9.60;;;4.57;;
14599;SDS011;7386;45.586;12.854;2022-09-02T12:11:34;7.13;;;3.00;;
14599;SDS011;7386;45.586;12.854;2022-09-02T12:14:07;6.38;;;3.60;;
14599;SDS011;7386;45.586;12.854;2022-09-02T12:16:40;7.60;;;5.35;;
14599;SDS011;7386;45.586;12.854;2022-09-02T12:19:17;5.97;;;4.40;;
14599;SDS011;7386;45.586;12.854;2022-09-02T12:25:05;12.93;;;7.93;;
14599;SDS011;7386;45.586;12.854;2022-09-02T12:28:13;10.43;;;6.35;;
14599;SDS011;7386;45.586;12.854;2022-09-02T12:33:41;16.05;;;9.40;;
14599;SDS011;7386;45.586;12.854;2022-09-02T12:42:23;34.83;;;14.43;;
14599;SDS011;7386;45.586;12.854;2022-09-02T12:45:00;23.77;;;9.95;;
14599;SDS011;7386;45.586;12.854;2022-09-02T12:47:38;16.42;;;8.50;;
14599;SDS011;7386;45.586;12.854;2022-09-02T12:50:18;24.50;;;11.93;;
14599;SDS011;7386;45.586;12.854;2022-09-02T12:52:52;11.32;;;6.40;;
14599;SDS011;7386;45.586;12.854;2022-09-02T12:55:53;13.27;;;7.55;;
14599;SDS011;7386;45.586;12.854;2022-09-02T12:58:24;13.55;;;8.02;;
14599;SDS011;7386;45.586;12.854;2022-09-02T13:00:56;11.10;;;6.28;;
14599;SDS011;7386;45.586;12.854;2022-09-02T13:03:35;16.88;;;11.35;;
14599;SDS011;7386;45.586;12.854;2022-09-02T13:06:16;9.75;;;6.68;;
14599;SDS011;7386;45.586;12.854;2022-09-02T13:14:56;11.55;;;6.45;;
14599;SDS011;7386;45.586;12.854;2022-09-02T13:17:35;11.88;;;7.38;;
14599;SDS011;7386;45.586;12.854;2022-09-02T13:20:29;12.80;;;7.90;;
14599;SDS011;7386;45.586;12.854;2022-09-02T13:26:26;10.15;;;6.32;;
14599;SDS011;7386;45.586;12.854;2022-09-02T13:32:21;9.45;;;5.25;;
14599;SDS011;7386;45.586;12.854;2022-09-02T13:34:51;10.32;;;7.45;;
14599;SDS011;7386;45.586;12.854;2022-09-02T13:37:26;6.97;;;4.75;;
14599;SDS011;7386;45.586;12.854;2022-09-02T13:39:56;10.55;;;5.68;;
14599;SDS011;7386;45.586;12.854;2022-09-02T13:42:25;8.48;;;6.13;;
14599;SDS011;7386;45.586;12.854;2022-09-02T13:45:07;11.93;;;5.68;;
14599;SDS011;7386;45.586;12.854;2022-09-02T13:47:44;8.18;;;3.90;;
14599;SDS011;7386;45.586;12.854;2022-09-02T13:50:17;6.25;;;4.03;;
14599;SDS011;7386;45.586;12.854;2022-09-02T13:52:49;14.95;;;6.00;;
14599;SDS011;7386;45.586;12.854;2022-09-02T13:55:45;9.52;;;5.07;;
14599;SDS011;7386;45.586;12.854;2022-09-02T14:01:18;11.23;;;7.57;;
14599;SDS011;7386;45.586;12.854;2022-09-02T14:03:50;10.93;;;6.60;;
14599;SDS011;7386;45.586;12.854;2022-09-02T14:06:21;12.23;;;7.55;;
14599;SDS011;7386;45.586;12.854;2022-09-02T14:08:53;16.63;;;10.10;;
14599;SDS011;7386;45.586;12.854;2022-09-02T14:11:25;12.75;;;6.90;;
14599;SDS011;7386;45.586;12.854;2022-09-02T14:13:55;10.68;;;6.20;;
14599;SDS011;7386;45.586;12.854;2022-09-02T14:16:27;22.05;;;13.38;;
14599;SDS011;7386;45.586;12.854;2022-09-02T14:19:04;14.00;;;7.53;;
14599;SDS011;7386;45.586;12.854;2022-09-02T14:21:33;13.40;;;7.65;;
14599;SDS011;7386;45.586;12.854;2022-09-02T14:24:02;15.70;;;10.45;;
14599;SDS011;7386;45.586;12.854;2022-09-02T14:26:35;16.63;;;10.02;;
14599;SDS011;7386;45.586;12.854;2022-09-02T14:29:09;9.05;;;6.50;;
14599;SDS011;7386;45.586;12.854;2022-09-02T14:32:08;9.38;;;5.55;;
14599;SDS011;7386;45.586;12.854;2022-09-02T14:34:41;11.00;;;7.70;;
14599;SDS011;7386;45.586;12.854;2022-09-02T14:37:18;10.65;;;5.25;;
14599;SDS011;7386;45.586;12.854;2022-09-02T14:42:44;13.10;;;6.95;;
14599;SDS011;7386;45.586;12.854;2022-09-02T14:45:23;9.00;;;4.32;;
14599;SDS011;7386;45.586;12.854;2022-09-02T14:47:53;7.43;;;4.00;;
14599;SDS011;7386;45.586;12.854;2022-09-02T14:50:26;10.57;;;6.65;;
14599;SDS011;7386;45.586;12.854;2022-09-02T14:52:58;7.38;;;4.90;;
14599;SDS011;7386;45.586;12.854;2022-09-02T14:55:38;9.82;;;5.28;;
14599;SDS011;7386;45.586;12.854;2022-09-02T14:58:15;12.85;;;7.70;;
14599;SDS011;7386;45.586;12.854;2022-09-02T15:00:52;10.70;;;4.93;;
14599;SDS011;7386;45.586;12.854;2022-09-02T15:03:22;6.60;;;4.43;;
14599;SDS011;7386;45.586;12.854;2022-09-02T15:05:52;7.50;;;5.55;;
14599;SDS011;7386;45.586;12.854;2022-09-02T15:08:20;13.15;;;6.97;;
14599;SDS011;7386;45.586;12.854;2022-09-02T15:10:49;15.95;;;10.35;;
14599;SDS011;7386;45.586;12.854;2022-09-02T15:13:24;11.32;;;7.10;;
14599;SDS011;7386;45.586;12.854;2022-09-02T15:15:55;10.00;;;7.28;;
14599;SDS011;7386;45.586;12.854;2022-09-02T15:18:24;8.00;;;5.50;;
14599;SDS011;7386;45.586;12.854;2022-09-02T15:20:54;10.25;;;6.65;;
14599;SDS011;7386;45.586;12.854;2022-09-02T15:23:25;5.47;;;3.90;;
14599;SDS011;7386;45.586;12.854;2022-09-02T15:26:00;7.75;;;4.65;;
14599;SDS011;7386;45.586;12.854;2022-09-02T15:28:30;8.45;;;6.07;;
14599;SDS011;7386;45.586;12.854;2022-09-02T15:30:58;7.78;;;4.47;;
14599;SDS011;7386;45.586;12.854;2022-09-02T15:33:28;6.53;;;3.60;;
14599;SDS011;7386;45.586;12.854;2022-09-02T15:36:07;10.10;;;6.15;;
14599;SDS011;7386;45.586;12.854;2022-09-02T15:38:39;7.35;;;4.15;;
14599;SDS011;7386;45.586;12.854;2022-09-02T15:41:09;7.20;;;4.20;;
14599;SDS011;7386;45.586;12.854;2022-09-02T15:43:41;8.07;;;4.88;;
14599;SDS011;7386;45.586;12.854;2022-09-02T15:46:17;9.30;;;4.47;;
14599;SDS011;7386;45.586;12.854;2022-09-02T15:48:47;9.93;;;4.20;;
14599;SDS011;7386;45.586;12.854;2022-09-02T15:51:18;7.97;;;5.30;;
14599;SDS011;7386;45.586;12.854;2022-09-02T15:53:52;9.20;;;4.18;;